Time;durP1;ratioP1;P1;durP2;ratioP2;P2;SDS_P1;SDS_P2;PMS_P1;PMS_P2;Temp;Humidity;BMP_temperature;BMP_pressure;BME280_temperature;BME280_humidity;BME280_pressure;Samples;Min_cycle;Max_cycle;Signal;HPM_P1;HPM_P2
2022/11/25 00:01:13;;;;;;;12.77;5.47;;;;;;;;;;4885466;29;20053;-62
2022/11/25 00:03:40;;;;;;;12.30;5.72;;;;;;;;;;4888240;29;20045;-61
2022/11/25 00:06:10;;;;;;;10.23;4.93;;;;;;;;;;4888106;29;20528;-62
2022/11/25 00:08:36;;;;;;;10.05;5.50;;;;;;;;;;4888747;29;20053;-62
2022/11/25 00:11:03;;;;;;;8.77;5.13;;;;;;;;;;4888725;29;20053;-62
2022/11/25 00:13:30;;;;;;;8.38;4.25;;;;;;;;;;4888015;29;20052;-62
2022/11/25 00:16:00;;;;;;;7.45;4.72;;;;;;;;;;4878145;29;20498;-61
2022/11/25 00:18:27;;;;;;;11.15;5.07;;;;;;;;;;4877226;29;20124;-61
2022/11/25 00:20:53;;;;;;;12.05;5.55;;;;;;;;;;4878458;29;20499;-60
2022/11/25 00:23:19;;;;;;;13.80;5.30;;;;;;;;;;4878234;29;20147;-60
2022/11/25 00:25:46;;;;;;;12.70;5.13;;;;;;;;;;4876758;29;20100;-60
2022/11/25 00:28:12;;;;;;;13.32;5.35;;;;;;;;;;4878229;29;20045;-61
2022/11/25 00:30:39;;;;;;;13.52;5.07;;;;;;;;;;4878461;29;20045;-61
2022/11/25 00:33:06;;;;;;;10.18;4.65;;;;;;;;;;4876903;29;20056;-61
2022/11/25 00:35:33;;;;;;;11.50;5.10;;;;;;;;;;4877731;29;20060;-61
2022/11/25 00:38:00;;;;;;;13.77;5.22;;;;;;;;;;4877217;29;20069;-61
2022/11/25 00:40:26;;;;;;;10.02;4.93;;;;;;;;;;4879545;29;20041;-61
2022/11/25 00:45:37;;;;;;;12.05;4.88;;;;;;;;;;4881745;29;20136;-61
2022/11/25 00:48:04;;;;;;;9.95;4.30;;;;;;;;;;4880694;29;20052;-61
2022/11/25 00:50:31;;;;;;;11.88;4.75;;;;;;;;;;4881833;29;20081;-61
2022/11/25 00:52:57;;;;;;;10.20;4.38;;;;;;;;;;4881707;29;20057;-61
2022/11/25 00:55:24;;;;;;;9.30;4.60;;;;;;;;;;4879961;29;20045;-61
2022/11/25 00:57:50;;;;;;;10.10;3.53;;;;;;;;;;4880619;29;20068;-60
2022/11/25 01:00:17;;;;;;;13.35;3.80;;;;;;;;;;4881761;29;20073;-60
2022/11/25 01:02:43;;;;;;;11.05;4.18;;;;;;;;;;4880317;29;20053;-61
2022/11/25 01:05:11;;;;;;;11.85;4.30;;;;;;;;;;4881041;29;20093;-60
2022/11/25 01:07:37;;;;;;;9.13;3.90;;;;;;;;;;4881356;29;20060;-60
2022/11/25 01:10:04;;;;;;;7.32;4.03;;;;;;;;;;4881460;29;20586;-60
2022/11/25 01:12:30;;;;;;;10.60;4.32;;;;;;;;;;4881383;29;20052;-61
2022/11/25 01:14:57;;;;;;;8.85;4.22;;;;;;;;;;4881095;29;20407;-61
2022/11/25 01:17:23;;;;;;;9.00;3.88;;;;;;;;;;4880657;29;20075;-61
2022/11/25 01:19:52;;;;;;;19.15;5.20;;;;;;;;;;4880059;29;20502;-61
2022/11/25 01:22:18;;;;;;;8.00;3.63;;;;;;;;;;4879774;29;20049;-61
2022/11/25 01:24:45;;;;;;;8.55;3.97;;;;;;;;;;4880308;29;20056;-62
2022/11/25 01:27:12;;;;;;;13.23;4.30;;;;;;;;;;4879483;29;20053;-61
2022/11/25 01:29:41;;;;;;;11.23;4.10;;;;;;;;;;4881217;29;20041;-62
2022/11/25 01:32:08;;;;;;;7.93;4.00;;;;;;;;;;4879717;29;20049;-60
2022/11/25 01:34:36;;;;;;;10.48;4.28;;;;;;;;;;4881000;29;20128;-62
2022/11/25 01:37:03;;;;;;;7.82;4.03;;;;;;;;;;4880511;29;20040;-61
2022/11/25 01:39:29;;;;;;;8.02;4.55;;;;;;;;;;4879936;29;20049;-61
2022/11/25 01:41:59;;;;;;;8.23;4.32;;;;;;;;;;4879836;29;20060;-61
2022/11/25 01:44:26;;;;;;;12.50;4.47;;;;;;;;;;4879720;29;20049;-61
2022/11/25 01:46:53;;;;;;;9.35;4.32;;;;;;;;;;4878928;29;20055;-61
2022/11/25 01:49:23;;;;;;;8.30;4.38;;;;;;;;;;4880835;29;20052;-61
2022/11/25 01:52:01;;;;;;;10.30;4.00;;;;;;;;;;4879125;29;20052;-61
2022/11/25 01:54:30;;;;;;;8.65;4.43;;;;;;;;;;4879453;29;20143;-59
2022/11/25 01:57:02;;;;;;;7.65;4.60;;;;;;;;;;4879149;29;20049;-59
2022/11/25 01:59:31;;;;;;;12.15;5.00;;;;;;;;;;4879510;29;20065;-60
2022/11/25 02:01:58;;;;;;;12.15;4.60;;;;;;;;;;4879134;29;20053;-60
2022/11/25 02:04:27;;;;;;;13.90;5.30;;;;;;;;;;4879366;29;20528;-60
2022/11/25 02:06:56;;;;;;;11.85;4.65;;;;;;;;;;4878941;29;20057;-60
2022/11/25 02:09:23;;;;;;;14.82;4.75;;;;;;;;;;4879422;29;20057;-60
2022/11/25 02:11:50;;;;;;;12.43;5.43;;;;;;;;;;4863814;29;20052;-59
2022/11/25 02:14:18;;;;;;;10.68;4.30;;;;;;;;;;4879250;29;20055;-59
2022/11/25 02:16:44;;;;;;;10.40;4.43;;;;;;;;;;4878818;29;20121;-59
2022/11/25 02:19:17;;;;;;;12.10;4.50;;;;;;;;;;4880555;29;20045;-60
2022/11/25 02:21:46;;;;;;;9.32;3.97;;;;;;;;;;4879453;29;20456;-59
2022/11/25 02:24:36;;;;;;;11.05;5.15;;;;;;;;;;4880450;29;20085;-58
2022/11/25 02:27:03;;;;;;;8.95;4.43;;;;;;;;;;4878389;29;20494;-58
2022/11/25 02:29:30;;;;;;;9.25;4.45;;;;;;;;;;4878885;29;20061;-60
2022/11/25 02:31:57;;;;;;;10.65;4.10;;;;;;;;;;4880001;29;20048;-60
2022/11/25 02:34:24;;;;;;;9.82;4.78;;;;;;;;;;4878676;29;20059;-59
2022/11/25 02:36:51;;;;;;;8.90;4.50;;;;;;;;;;4878511;29;20049;-58
2022/11/25 02:39:18;;;;;;;9.45;4.28;;;;;;;;;;4878667;29;20081;-59
2022/11/25 02:41:48;;;;;;;9.15;4.55;;;;;;;;;;4879928;29;20076;-57
2022/11/25 02:44:16;;;;;;;11.15;4.15;;;;;;;;;;4878599;29;20499;-57
2022/11/25 02:46:43;;;;;;;8.60;3.90;;;;;;;;;;4877995;29;20074;-59
2022/11/25 02:49:09;;;;;;;8.32;3.92;;;;;;;;;;4879748;29;20388;-59
2022/11/25 02:51:38;;;;;;;9.32;4.30;;;;;;;;;;4878213;29;20481;-59
2022/11/25 02:54:07;;;;;;;14.15;4.70;;;;;;;;;;4879564;29;20072;-57
2022/11/25 02:56:34;;;;;;;9.07;4.03;;;;;;;;;;4878136;29;20037;-58
2022/11/25 02:59:01;;;;;;;9.60;4.50;;;;;;;;;;4878453;29;20051;-58
2022/11/25 03:01:29;;;;;;;12.18;4.40;;;;;;;;;;4878106;29;20567;-59
2022/11/25 03:03:56;;;;;;;9.82;4.95;;;;;;;;;;4879719;29;20490;-58
2022/11/25 03:06:25;;;;;;;10.90;4.43;;;;;;;;;;4883856;29;20048;-57
2022/11/25 03:08:52;;;;;;;10.95;3.92;;;;;;;;;;4883966;29;20574;-57
2022/11/25 03:11:19;;;;;;;10.25;3.83;;;;;;;;;;4885736;29;20044;-57
2022/11/25 03:13:45;;;;;;;17.75;8.90;;;;;;;;;;4885915;29;20048;-59
2022/11/25 03:16:13;;;;;;;8.88;4.18;;;;;;;;;;4884277;29;20063;-60
2022/11/25 03:18:42;;;;;;;8.73;3.70;;;;;;;;;;4883599;29;20081;-58
2022/11/25 03:21:09;;;;;;;9.45;4.20;;;;;;;;;;4882650;29;20037;-58
2022/11/25 03:23:35;;;;;;;7.85;4.18;;;;;;;;;;4880825;29;20053;-58
2022/11/25 03:26:05;;;;;;;8.07;3.83;;;;;;;;;;4878694;29;20053;-58
2022/11/25 03:28:32;;;;;;;10.02;4.32;;;;;;;;;;4879107;29;20101;-57
2022/11/25 03:30:59;;;;;;;10.65;4.43;;;;;;;;;;4880330;29;20052;-57
2022/11/25 03:33:25;;;;;;;9.93;3.80;;;;;;;;;;4879387;29;20109;-57
2022/11/25 03:35:52;;;;;;;7.45;4.25;;;;;;;;;;4877488;29;20068;-58
2022/11/25 03:38:19;;;;;;;6.25;3.42;;;;;;;;;;4877924;29;20554;-58
2022/11/25 03:40:46;;;;;;;6.35;3.47;;;;;;;;;;4878897;29;20056;-58
2022/11/25 03:43:13;;;;;;;8.50;3.92;;;;;;;;;;4877538;29;20054;-58
2022/11/25 03:45:41;;;;;;;8.45;3.50;;;;;;;;;;4877257;29;20049;-58
2022/11/25 03:48:08;;;;;;;8.68;3.50;;;;;;;;;;4877553;29;20049;-59
2022/11/25 03:50:35;;;;;;;8.60;3.58;;;;;;;;;;4877635;29;20049;-59
2022/11/25 03:53:02;;;;;;;8.52;4.00;;;;;;;;;;4877488;29;20422;-58
2022/11/25 03:55:28;;;;;;;7.32;3.78;;;;;;;;;;4878130;29;20041;-60
2022/11/25 03:57:55;;;;;;;8.35;3.47;;;;;;;;;;4877319;29;20086;-59
2022/11/25 04:00:23;;;;;;;9.43;3.67;;;;;;;;;;4877317;29;20045;-59
2022/11/25 04:02:57;;;;;;;7.15;3.78;;;;;;;;;;4877227;29;20045;-59
2022/11/25 04:05:23;;;;;;;11.30;5.38;;;;;;;;;;4878332;29;20051;-59
2022/11/25 04:07:52;;;;;;;10.70;4.97;;;;;;;;;;4877207;29;20426;-57
2022/11/25 04:10:23;;;;;;;9.85;4.22;;;;;;;;;;4877245;29;20577;-58
2022/11/25 04:12:51;;;;;;;10.30;3.75;;;;;;;;;;4861908;29;20585;-59
2022/11/25 04:15:22;;;;;;;8.88;3.78;;;;;;;;;;4876475;29;20097;-59
2022/11/25 04:17:51;;;;;;;6.90;3.80;;;;;;;;;;4877147;29;20468;-59
2022/11/25 04:20:18;;;;;;;7.32;3.97;;;;;;;;;;4877461;29;20055;-60
2022/11/25 04:22:51;;;;;;;11.43;4.03;;;;;;;;;;4877202;29;20045;-59
2022/11/25 04:25:18;;;;;;;7.65;3.50;;;;;;;;;;4876834;29;20080;-60
2022/11/25 04:27:45;;;;;;;12.13;3.97;;;;;;;;;;4876949;29;20063;-60
2022/11/25 04:30:14;;;;;;;7.05;3.92;;;;;;;;;;4877227;29;20095;-59
2022/11/25 04:32:42;;;;;;;8.98;3.40;;;;;;;;;;4877004;29;20100;-60
2022/11/25 04:35:09;;;;;;;9.20;3.55;;;;;;;;;;4876623;29;20100;-60
2022/11/25 04:37:38;;;;;;;7.07;3.13;;;;;;;;;;4877128;29;20045;-60
2022/11/25 04:40:05;;;;;;;6.00;3.10;;;;;;;;;;4878050;29;20045;-60
2022/11/25 04:42:33;;;;;;;8.73;3.58;;;;;;;;;;4861707;29;20565;-60
2022/11/25 04:45:05;;;;;;;6.05;3.17;;;;;;;;;;4877842;29;20049;-60
2022/11/25 04:47:50;;;;;;;5.93;2.83;;;;;;;;;;4876831;29;20418;-59
2022/11/25 04:50:19;;;;;;;8.02;3.20;;;;;;;;;;4876926;29;20110;-60
2022/11/25 04:52:55;;;;;;;6.47;3.40;;;;;;;;;;4876755;29;20056;-59
2022/11/25 04:55:22;;;;;;;7.78;3.45;;;;;;;;;;4876123;29;20120;-59
2022/11/25 04:57:49;;;;;;;10.18;3.55;;;;;;;;;;4878096;29;20407;-60
2022/11/25 05:03:12;;;;;;;7.50;3.20;;;;;;;;;;5077333;23;20060;-64
2022/11/25 05:05:38;;;;;;;7.00;3.30;;;;;;;;;;4894761;29;20048;-64
2022/11/25 05:08:06;;;;;;;9.05;3.97;;;;;;;;;;4910993;29;20063;-65
2022/11/25 05:10:32;;;;;;;8.35;3.72;;;;;;;;;;4896589;29;20120;-65
2022/11/25 05:12:58;;;;;;;11.52;3.28;;;;;;;;;;4880919;29;20078;-65
2022/11/25 05:15:25;;;;;;;12.68;3.55;;;;;;;;;;4875949;29;20060;-65
2022/11/25 05:17:52;;;;;;;8.68;4.53;;;;;;;;;;4876502;29;20056;-65
2022/11/25 05:20:34;;;;;;;8.32;3.85;;;;;;;;;;4876628;29;20053;-65
2022/11/25 05:23:01;;;;;;;8.35;4.05;;;;;;;;;;4892039;29;20045;-65
2022/11/25 05:25:28;;;;;;;7.38;4.05;;;;;;;;;;4891392;29;20056;-65
2022/11/25 05:28:20;;;;;;;8.35;3.92;;;;;;;;;;4881254;29;20116;-65
2022/11/25 05:30:47;;;;;;;8.40;3.78;;;;;;;;;;4881010;29;20642;-65
2022/11/25 05:33:14;;;;;;;7.90;3.20;;;;;;;;;;4879587;29;20095;-65
2022/11/25 05:35:40;;;;;;;6.68;3.42;;;;;;;;;;4894698;29;20048;-65
2022/11/25 05:38:07;;;;;;;10.05;3.95;;;;;;;;;;4881166;29;20064;-65
2022/11/25 05:40:35;;;;;;;5.78;3.42;;;;;;;;;;4879709;29;20045;-65
2022/11/25 05:43:08;;;;;;;6.75;3.75;;;;;;;;;;4879523;29;20087;-65
2022/11/25 05:45:38;;;;;;;10.23;4.10;;;;;;;;;;4894593;29;20056;-65
2022/11/25 05:48:06;;;;;;;8.13;4.07;;;;;;;;;;4895139;29;20113;-65
2022/11/25 05:50:33;;;;;;;7.32;4.03;;;;;;;;;;4879427;29;20052;-65
2022/11/25 05:53:08;;;;;;;6.68;3.42;;;;;;;;;;4879513;29;20049;-65
2022/11/25 05:55:35;;;;;;;7.90;3.40;;;;;;;;;;4878894;29;20037;-65
2022/11/25 05:58:05;;;;;;;6.20;2.97;;;;;;;;;;4895143;29;20069;-64
2022/11/25 06:00:32;;;;;;;5.80;2.67;;;;;;;;;;4895009;29;20658;-65
2022/11/25 06:03:01;;;;;;;6.55;3.95;;;;;;;;;;4879175;29;20045;-64
2022/11/25 06:05:29;;;;;;;9.23;4.93;;;;;;;;;;4894364;29;20490;-64
2022/11/25 06:07:55;;;;;;;7.25;3.72;;;;;;;;;;4879206;29;20116;-64
2022/11/25 06:10:23;;;;;;;7.10;3.25;;;;;;;;;;4879199;29;20059;-64
2022/11/25 06:12:52;;;;;;;6.00;3.28;;;;;;;;;;4879630;29;20409;-64
2022/11/25 06:15:18;;;;;;;7.18;3.55;;;;;;;;;;4894036;29;20049;-64
2022/11/25 06:17:46;;;;;;;7.65;4.18;;;;;;;;;;4894267;29;20133;-64
2022/11/25 06:20:17;;;;;;;10.95;3.22;;;;;;;;;;4878992;29;20056;-64
2022/11/25 06:22:44;;;;;;;9.93;3.13;;;;;;;;;;4878852;29;20049;-64
2022/11/25 06:25:11;;;;;;;5.53;3.08;;;;;;;;;;4893847;29;20056;-64
2022/11/25 06:27:39;;;;;;;7.50;3.35;;;;;;;;;;4878798;29;20053;-64
2022/11/25 06:30:25;;;;;;;8.00;3.13;;;;;;;;;;4894277;29;20045;-65
2022/11/25 06:33:05;;;;;;;12.27;4.18;;;;;;;;;;4894037;29;20049;-64
2022/11/25 06:35:32;;;;;;;7.05;2.80;;;;;;;;;;4894281;29;20049;-64
2022/11/25 06:38:00;;;;;;;8.65;2.80;;;;;;;;;;4878222;29;20056;-65
2022/11/25 06:40:27;;;;;;;9.57;2.97;;;;;;;;;;4881285;29;20044;-64
2022/11/25 06:42:53;;;;;;;8.18;3.20;;;;;;;;;;4881359;29;20049;-64
2022/11/25 06:45:20;;;;;;;8.77;2.90;;;;;;;;;;4883506;29;20056;-64
2022/11/25 06:47:46;;;;;;;7.05;2.75;;;;;;;;;;4882572;29;20044;-64
2022/11/25 06:50:12;;;;;;;10.55;2.72;;;;;;;;;;4882188;29;20506;-64
2022/11/25 06:52:39;;;;;;;8.73;2.50;;;;;;;;;;4880678;29;20081;-65
2022/11/25 06:55:05;;;;;;;10.85;2.97;;;;;;;;;;4879625;29;20049;-64
2022/11/25 06:57:32;;;;;;;10.93;3.35;;;;;;;;;;4893943;29;20102;-64
2022/11/25 06:59:58;;;;;;;9.02;2.67;;;;;;;;;;4878271;29;20052;-64
2022/11/25 07:02:24;;;;;;;7.68;3.00;;;;;;;;;;4879317;29;20049;-64
2022/11/25 07:04:51;;;;;;;8.13;2.63;;;;;;;;;;4879501;29;20045;-64
2022/11/25 07:07:17;;;;;;;9.43;3.40;;;;;;;;;;4878092;29;20220;-64
2022/11/25 07:09:44;;;;;;;6.82;2.20;;;;;;;;;;4878463;29;20045;-64
2022/11/25 07:12:11;;;;;;;6.53;1.80;;;;;;;;;;4879236;29;20045;-64
2022/11/25 07:14:37;;;;;;;7.50;2.78;;;;;;;;;;4879274;29;20041;-64
2022/11/25 07:17:04;;;;;;;6.65;2.38;;;;;;;;;;4879093;29;20044;-64
2022/11/25 07:19:37;;;;;;;12.23;2.75;;;;;;;;;;4878119;29;20417;-64
2022/11/25 07:22:03;;;;;;;7.03;2.35;;;;;;;;;;4879108;29;20048;-65
2022/11/25 07:24:30;;;;;;;8.48;2.30;;;;;;;;;;4878076;29;20041;-64
2022/11/25 07:26:56;;;;;;;8.05;2.47;;;;;;;;;;4877358;29;20093;-64
2022/11/25 07:29:23;;;;;;;7.13;2.83;;;;;;;;;;4878922;29;20096;-64
2022/11/25 07:32:10;;;;;;;6.63;2.03;;;;;;;;;;4877701;29;20049;-64
2022/11/25 07:34:36;;;;;;;7.30;2.47;;;;;;;;;;4878972;29;20071;-64
2022/11/25 07:37:03;;;;;;;7.22;2.83;;;;;;;;;;4877223;29;20088;-64
2022/11/25 07:39:29;;;;;;;6.40;1.98;;;;;;;;;;4878786;29;20045;-64
2022/11/25 07:41:56;;;;;;;8.38;2.20;;;;;;;;;;4878782;29;20052;-65
2022/11/25 07:44:22;;;;;;;7.38;2.05;;;;;;;;;;4878789;29;20479;-64
2022/11/25 07:46:59;;;;;;;10.00;2.88;;;;;;;;;;4892697;29;20080;-64
2022/11/25 07:49:26;;;;;;;7.07;2.50;;;;;;;;;;4878309;29;20124;-64
2022/11/25 07:51:54;;;;;;;6.25;2.67;;;;;;;;;;4878885;29;20049;-64
2022/11/25 07:54:21;;;;;;;12.15;4.38;;;;;;;;;;4892717;29;20156;-64
2022/11/25 07:56:48;;;;;;;6.50;2.70;;;;;;;;;;4892116;29;20049;-64
2022/11/25 07:59:16;;;;;;;8.82;3.28;;;;;;;;;;4878607;29;20033;-64
2022/11/25 08:01:43;;;;;;;6.82;2.65;;;;;;;;;;4892547;29;20060;-64
2022/11/25 08:04:11;;;;;;;13.02;3.63;;;;;;;;;;4878457;29;20502;-64
2022/11/25 08:06:46;;;;;;;9.07;2.50;;;;;;;;;;4878172;29;20098;-64
2022/11/25 08:09:14;;;;;;;6.20;2.47;;;;;;;;;;4878452;29;20049;-65
2022/11/25 08:11:41;;;;;;;4.70;2.50;;;;;;;;;;4877024;29;20044;-64
2022/11/25 08:14:09;;;;;;;7.20;2.95;;;;;;;;;;4892782;29;20199;-64
2022/11/25 08:16:36;;;;;;;10.93;3.78;;;;;;;;;;4877698;29;20044;-64
2022/11/25 08:19:03;;;;;;;7.85;3.00;;;;;;;;;;4878394;29;20357;-64
2022/11/25 08:21:30;;;;;;;9.27;2.90;;;;;;;;;;4878102;29;20471;-64
2022/11/25 08:23:56;;;;;;;8.68;2.88;;;;;;;;;;4878187;29;20550;-64
2022/11/25 08:26:31;;;;;;;7.88;2.63;;;;;;;;;;4891837;29;20060;-64
2022/11/25 08:28:58;;;;;;;8.25;3.17;;;;;;;;;;4878201;29;20049;-64
2022/11/25 08:31:26;;;;;;;13.30;3.17;;;;;;;;;;4878064;29;20052;-64
2022/11/25 08:33:54;;;;;;;10.13;3.17;;;;;;;;;;4878234;29;20049;-64
2022/11/25 08:36:21;;;;;;;7.38;3.28;;;;;;;;;;4877735;29;20049;-64
2022/11/25 08:38:49;;;;;;;7.65;3.35;;;;;;;;;;4878183;29;20125;-64
2022/11/25 08:41:20;;;;;;;5.95;3.33;;;;;;;;;;4877947;29;20117;-64
2022/11/25 08:43:46;;;;;;;11.60;3.95;;;;;;;;;;4878072;29;20047;-65
2022/11/25 08:46:14;;;;;;;10.25;4.32;;;;;;;;;;4877404;29;20045;-64
2022/11/25 08:48:41;;;;;;;8.32;4.05;;;;;;;;;;4878261;29;20105;-64
2022/11/25 08:51:10;;;;;;;11.68;3.55;;;;;;;;;;4877952;29;20041;-65
2022/11/25 08:53:36;;;;;;;5.80;3.70;;;;;;;;;;4878091;29;20100;-65
2022/11/25 08:56:03;;;;;;;9.98;4.03;;;;;;;;;;4877211;29;20100;-64
2022/11/25 08:58:30;;;;;;;9.45;3.78;;;;;;;;;;4892319;29;20060;-64
2022/11/25 09:00:56;;;;;;;8.23;3.00;;;;;;;;;;4878337;29;20056;-64
2022/11/25 09:03:23;;;;;;;7.80;3.17;;;;;;;;;;4881420;29;20494;-64
2022/11/25 09:05:49;;;;;;;13.57;3.63;;;;;;;;;;4881001;29;20490;-64
2022/11/25 09:08:16;;;;;;;9.02;3.92;;;;;;;;;;4881686;29;20045;-64
2022/11/25 09:10:42;;;;;;;13.52;3.78;;;;;;;;;;4881437;29;20044;-65
2022/11/25 09:13:10;;;;;;;11.68;4.07;;;;;;;;;;4881345;29;20060;-65
2022/11/25 09:15:37;;;;;;;10.68;3.78;;;;;;;;;;4880795;29;20083;-65
2022/11/25 09:18:05;;;;;;;9.20;3.83;;;;;;;;;;4880249;29;20045;-64
2022/11/25 09:20:32;;;;;;;12.98;4.97;;;;;;;;;;4881285;29;20041;-64
2022/11/25 09:22:59;;;;;;;7.25;4.18;;;;;;;;;;4881122;29;20041;-65
2022/11/25 09:25:26;;;;;;;10.23;4.28;;;;;;;;;;4879538;29;20048;-64
2022/11/25 09:27:53;;;;;;;7.22;4.25;;;;;;;;;;4881333;29;20041;-65
2022/11/25 09:30:20;;;;;;;10.35;4.13;;;;;;;;;;4896148;29;20060;-65
2022/11/25 09:32:50;;;;;;;8.63;4.38;;;;;;;;;;4880271;29;20064;-64
2022/11/25 09:35:17;;;;;;;10.30;4.45;;;;;;;;;;4881674;29;20048;-65
2022/11/25 09:37:44;;;;;;;12.57;5.40;;;;;;;;;;4881340;29;20045;-64
2022/11/25 09:40:17;;;;;;;8.98;4.22;;;;;;;;;;4881269;29;20053;-65
2022/11/25 09:48:22;;;;;;;11.40;4.03;;;;;;;;;;4880901;29;20521;-65
2022/11/25 09:50:49;;;;;;;7.05;3.80;;;;;;;;;;4880800;29;20100;-65
2022/11/25 09:53:34;;;;;;;9.48;3.90;;;;;;;;;;4879711;29;20081;-65
2022/11/25 09:56:02;;;;;;;11.95;3.83;;;;;;;;;;4880399;29;20105;-66
2022/11/25 09:58:37;;;;;;;8.77;4.03;;;;;;;;;;4879629;29;20045;-65
2022/11/25 10:01:05;;;;;;;8.55;4.20;;;;;;;;;;4880799;29;20049;-65
2022/11/25 10:03:32;;;;;;;10.10;4.32;;;;;;;;;;4879305;29;20093;-65
2022/11/25 10:06:02;;;;;;;10.90;4.13;;;;;;;;;;4879107;29;20055;-65
2022/11/25 10:08:34;;;;;;;9.68;4.13;;;;;;;;;;4895150;29;20391;-65
2022/11/25 10:11:02;;;;;;;9.73;4.03;;;;;;;;;;4880596;29;20045;-65
2022/11/25 10:13:44;;;;;;;10.63;4.43;;;;;;;;;;4880023;29;20045;-65
2022/11/25 10:16:34;;;;;;;9.25;3.95;;;;;;;;;;4880078;29;20121;-65
2022/11/25 10:19:14;;;;;;;11.43;4.07;;;;;;;;;;4875580;29;20057;-66
2022/11/25 10:21:41;;;;;;;10.38;4.22;;;;;;;;;;4880419;29;20455;-64
2022/11/25 10:24:14;;;;;;;13.45;5.60;;;;;;;;;;4880426;29;20510;-65
2022/11/25 10:26:47;;;;;;;8.65;5.30;;;;;;;;;;4880319;29;20045;-65
2022/11/25 10:29:15;;;;;;;15.57;5.30;;;;;;;;;;4880827;29;20053;-66
2022/11/25 10:31:42;;;;;;;8.95;5.07;;;;;;;;;;4880173;29;20483;-65
2022/11/25 10:34:13;;;;;;;10.68;4.63;;;;;;;;;;4879035;29;20101;-65
2022/11/25 10:36:41;;;;;;;9.77;4.45;;;;;;;;;;4879582;29;20041;-66
2022/11/25 10:39:26;;;;;;;8.88;4.45;;;;;;;;;;4894429;29;20049;-65
2022/11/25 10:42:06;;;;;;;18.85;7.93;;;;;;;;;;4880026;29;20109;-65
2022/11/25 10:44:33;;;;;;;14.38;6.47;;;;;;;;;;4880175;29;20093;-65
2022/11/25 10:47:01;;;;;;;14.68;5.82;;;;;;;;;;4880664;29;20080;-64
2022/11/25 10:50:01;;;;;;;12.95;6.05;;;;;;;;;;4882606;29;20469;-65
2022/11/25 10:52:29;;;;;;;14.15;5.93;;;;;;;;;;4879825;29;20097;-65
2022/11/25 10:54:56;;;;;;;14.95;8.13;;;;;;;;;;4893864;29;20064;-65
2022/11/25 10:57:26;;;;;;;22.38;13.23;;;;;;;;;;4879346;29;20455;-65
2022/11/25 10:59:54;;;;;;;16.83;8.40;;;;;;;;;;4879570;29;20045;-65
2022/11/25 11:02:21;;;;;;;15.85;8.05;;;;;;;;;;4879301;29;20070;-65
2022/11/25 11:04:56;;;;;;;9.88;4.68;;;;;;;;;;4879459;29;20052;-65
2022/11/25 11:07:23;;;;;;;8.32;4.28;;;;;;;;;;4879619;29;20415;-65
2022/11/25 11:09:49;;;;;;;8.48;4.57;;;;;;;;;;4878311;29;20049;-65
2022/11/25 11:12:26;;;;;;;13.32;8.32;;;;;;;;;;4879347;29;20049;-65
2022/11/25 11:14:53;;;;;;;18.27;10.38;;;;;;;;;;4879372;29;20048;-65
2022/11/25 11:17:30;;;;;;;14.55;8.02;;;;;;;;;;4878490;29;20045;-65
2022/11/25 11:20:12;;;;;;;19.17;7.82;;;;;;;;;;4879413;29;20037;-65
2022/11/25 11:22:44;;;;;;;19.10;8.73;;;;;;;;;;4877937;29;20048;-65
2022/11/25 11:25:20;;;;;;;29.30;14.68;;;;;;;;;;4878240;29;20045;-65
2022/11/25 11:27:47;;;;;;;36.65;15.40;;;;;;;;;;4878068;29;20049;-65
2022/11/25 11:30:19;;;;;;;36.25;14.80;;;;;;;;;;4893600;29;20109;-65
2022/11/25 11:32:54;;;;;;;32.55;11.70;;;;;;;;;;4879573;29;20146;-65
2022/11/25 11:35:36;;;;;;;32.42;13.20;;;;;;;;;;4878554;29;20338;-65
2022/11/25 11:38:22;;;;;;;21.40;11.68;;;;;;;;;;4879679;29;20041;-65
2022/11/25 11:40:52;;;;;;;10.80;4.97;;;;;;;;;;4879052;29;20049;-65
2022/11/25 11:43:19;;;;;;;12.93;5.93;;;;;;;;;;4878901;29;20068;-65
2022/11/25 11:46:04;;;;;;;14.05;5.05;;;;;;;;;;4878382;29;20044;-65
2022/11/25 11:48:44;;;;;;;9.60;5.03;;;;;;;;;;4877767;29;20100;-65
2022/11/25 11:51:30;;;;;;;11.95;4.50;;;;;;;;;;4878681;29;20041;-63
2022/11/25 11:53:56;;;;;;;9.90;3.97;;;;;;;;;;4878611;29;20045;-65
2022/11/25 11:56:29;;;;;;;13.43;4.55;;;;;;;;;;4878429;29;20101;-65
2022/11/25 11:59:35;;;;;;;10.25;4.68;;;;;;;;;;4878922;29;20036;-65
2022/11/25 12:02:01;;;;;;;11.95;4.80;;;;;;;;;;4857209;29;20434;-65
2022/11/25 12:04:30;;;;;;;11.20;4.30;;;;;;;;;;4878701;29;20128;-65
2022/11/25 12:07:06;;;;;;;10.63;4.57;;;;;;;;;;4878047;29;20049;-65
2022/11/25 12:09:36;;;;;;;9.50;4.55;;;;;;;;;;4877572;29;20048;-64
2022/11/25 12:12:04;;;;;;;8.40;4.30;;;;;;;;;;4878594;29;20052;-65
2022/11/25 12:14:35;;;;;;;9.07;4.05;;;;;;;;;;4878573;29;20049;-65
2022/11/25 12:17:04;;;;;;;11.10;4.30;;;;;;;;;;4876926;29;20041;-65
2022/11/25 12:19:37;;;;;;;9.70;4.75;;;;;;;;;;4877245;29;20051;-65
2022/11/25 12:22:13;;;;;;;9.13;3.28;;;;;;;;;;4878277;29;20045;-64
2022/11/25 12:24:45;;;;;;;9.73;3.35;;;;;;;;;;4878324;29;20097;-65
2022/11/25 12:27:15;;;;;;;11.00;3.75;;;;;;;;;;4877780;29;20048;-65
2022/11/25 12:29:51;;;;;;;10.40;3.42;;;;;;;;;;4878502;29;20045;-65
2022/11/25 12:32:36;;;;;;;13.32;3.50;;;;;;;;;;4878343;29;20053;-64
2022/11/25 12:35:06;;;;;;;7.03;3.20;;;;;;;;;;4878581;29;20060;-63
2022/11/25 12:37:37;;;;;;;7.20;2.47;;;;;;;;;;4882348;29;20044;-64
2022/11/25 12:40:06;;;;;;;9.65;2.55;;;;;;;;;;4883072;29;20105;-65
2022/11/25 12:42:35;;;;;;;6.28;2.50;;;;;;;;;;4882348;29;20401;-64
2022/11/25 12:45:05;;;;;;;6.97;2.20;;;;;;;;;;4881719;29;20498;-64
2022/11/25 12:47:32;;;;;;;10.32;2.55;;;;;;;;;;4882275;29;20174;-64
2022/11/25 12:49:58;;;;;;;9.20;2.97;;;;;;;;;;4882107;29;20052;-64
2022/11/25 12:52:44;;;;;;;9.70;2.50;;;;;;;;;;4880722;29;20055;-64
2022/11/25 12:55:13;;;;;;;11.60;2.60;;;;;;;;;;4881445;29;20049;-64
2022/11/25 12:57:49;;;;;;;12.32;2.65;;;;;;;;;;4882015;29;20455;-64
2022/11/25 13:00:20;;;;;;;7.97;2.20;;;;;;;;;;4881979;29;20049;-64
2022/11/25 13:03:12;;;;;;;4.72;1.92;;;;;;;;;;4893345;29;20041;-64
2022/11/25 13:05:48;;;;;;;8.02;2.38;;;;;;;;;;4895572;29;20045;-64
2022/11/25 13:08:34;;;;;;;8.25;2.10;;;;;;;;;;4880510;29;20045;-64
2022/11/25 13:11:00;;;;;;;9.02;2.30;;;;;;;;;;4881624;29;20517;-65
2022/11/25 13:13:44;;;;;;;7.90;1.98;;;;;;;;;;4881941;29;20108;-65
2022/11/25 13:16:12;;;;;;;6.10;1.95;;;;;;;;;;4895547;29;20063;-65
2022/11/25 13:18:41;;;;;;;7.88;1.90;;;;;;;;;;4880001;29;20041;-65
2022/11/25 13:21:15;;;;;;;6.75;2.38;;;;;;;;;;4880022;29;20526;-65
2022/11/25 13:23:45;;;;;;;11.05;2.00;;;;;;;;;;4880176;29;20057;-65
2022/11/25 13:26:27;;;;;;;11.45;2.47;;;;;;;;;;4880533;29;20063;-65
2022/11/25 13:28:54;;;;;;;8.52;2.17;;;;;;;;;;4895512;29;20057;-65
2022/11/25 13:31:22;;;;;;;6.45;2.30;;;;;;;;;;4882041;29;20092;-65
2022/11/25 13:33:48;;;;;;;6.93;3.00;;;;;;;;;;4899126;29;20049;-65
2022/11/25 13:36:33;;;;;;;6.38;2.13;;;;;;;;;;4882165;29;20037;-65
2022/11/25 13:39:04;;;;;;;7.65;2.33;;;;;;;;;;4881549;29;20061;-65
2022/11/25 13:41:36;;;;;;;9.90;2.67;;;;;;;;;;4880975;29;20056;-65
2022/11/25 13:44:04;;;;;;;12.00;2.85;;;;;;;;;;4881078;29;20521;-65
2022/11/25 13:46:44;;;;;;;11.50;3.13;;;;;;;;;;4880628;29;20116;-65
2022/11/25 13:49:25;;;;;;;5.85;2.50;;;;;;;;;;4881899;29;20053;-65
2022/11/25 13:51:53;;;;;;;8.70;2.92;;;;;;;;;;4881566;29;20093;-65
2022/11/25 13:54:23;;;;;;;14.20;3.42;;;;;;;;;;4880158;29;20056;-65
2022/11/25 13:57:00;;;;;;;8.10;3.08;;;;;;;;;;4880804;29;20045;-66
2022/11/25 13:59:34;;;;;;;15.85;3.17;;;;;;;;;;4881954;29;20040;-64
2022/11/25 14:02:20;;;;;;;9.32;3.40;;;;;;;;;;4881945;29;20048;-65
2022/11/25 14:04:53;;;;;;;9.57;2.45;;;;;;;;;;4883159;29;20405;-65
2022/11/25 14:07:20;;;;;;;6.15;3.17;;;;;;;;;;4896130;29;20049;-66
2022/11/25 14:10:05;;;;;;;13.25;2.58;;;;;;;;;;4880743;29;20075;-65
2022/11/25 14:12:37;;;;;;;8.98;2.45;;;;;;;;;;4881868;29;20045;-65
2022/11/25 14:15:17;;;;;;;9.02;2.92;;;;;;;;;;4881688;29;20041;-65
2022/11/25 14:17:59;;;;;;;11.43;3.28;;;;;;;;;;4882370;29;20301;-65
2022/11/25 14:20:33;;;;;;;10.57;3.13;;;;;;;;;;4882257;29;20462;-65
2022/11/25 14:22:59;;;;;;;;;;;;;;;;;;4896899;29;20053;-65
2022/11/25 14:25:29;;;;;;;12.70;3.50;;;;;;;;;;4881047;29;19927;-65
2022/11/25 14:28:15;;;;;;;9.05;2.22;;;;;;;;;;4881576;29;20402;-65
2022/11/25 14:30:44;;;;;;;8.20;2.92;;;;;;;;;;4873383;29;20462;-65
2022/11/25 14:33:22;;;;;;;7.53;2.25;;;;;;;;;;4893514;29;20060;-65
2022/11/25 14:35:51;;;;;;;12.25;2.83;;;;;;;;;;4894528;29;20097;-65
2022/11/25 14:38:26;;;;;;;7.15;2.65;;;;;;;;;;4883951;29;20037;-64
2022/11/25 14:40:57;;;;;;;9.35;3.40;;;;;;;;;;4882316;29;20053;-64
2022/11/25 14:43:24;;;;;;;6.50;2.90;;;;;;;;;;4880190;29;20101;-64
2022/11/25 14:46:26;;;;;;;12.13;2.70;;;;;;;;;;4893930;29;20057;-65
2022/11/25 14:48:54;;;;;;;10.18;2.80;;;;;;;;;;4840499;29;20579;-65
2022/11/25 14:51:21;;;;;;;13.02;2.80;;;;;;;;;;4872447;29;20116;-65
2022/11/25 14:53:48;;;;;;;9.75;2.78;;;;;;;;;;4894210;29;20506;-65
2022/11/25 14:56:16;;;;;;;8.48;2.58;;;;;;;;;;4893565;29;20412;-65
2022/11/25 14:58:46;;;;;;;9.40;2.70;;;;;;;;;;4878893;29;20052;-65
2022/11/25 15:01:20;;;;;;;7.90;2.65;;;;;;;;;;4894150;29;20053;-65
2022/11/25 15:03:48;;;;;;;14.07;3.92;;;;;;;;;;4894312;29;20059;-65
2022/11/25 15:06:14;;;;;;;9.13;2.75;;;;;;;;;;4879344;29;20550;-65